Keenes, Illinois
Current Conditions -  °F | °C
As of 3:55 AM on Sunday 23 Nov 2014 (Local Time) from KMVN Reporting Station
Scattered Clouds Scattered Clouds  
Wind Chill: 50°   Ceiling: Unl
Heat Index: 50°   Visibility: 10mi
Dew Point: 39°   Wind: 3mph
Humidity: 66%   Direction: 150°SSE
Pressure: 29.83"   Gusts: NA
Location:  38.34°N, 88.64°W
Report Text: KMVN 230955Z AUTO 15003KT 10SM SCT039 10/04 A2983 RMK AO1
Loading
Personal Weather Stations






























Interactive Weather Map New forecast layout! Learn more

10-Day Weather Forecast

Advertisements
Track Severe Weather on mobile